Time;durP1;ratioP1;P1;durP2;ratioP2;P2;SDS_P1;SDS_P2;PMS_P1;PMS_P2;Temp;Humidity;BMP_temperature;BMP_pressure;BME280_temperature;BME280_humidity;BME280_pressure;Samples;Min_cycle;Max_cycle;Signal;HPM_P1;HPM_P2
2022/08/01 00:01:15;;;;;;;0.00;0.00;;;20.10;99.90;;;;;;4991594;28;20482;-87
2022/08/01 00:03:44;;;;;;;0.00;0.00;;;20.10;99.90;;;;;;4988210;28;20701;-87
2022/08/01 00:06:12;;;;;;;0.00;0.00;;;20.00;99.90;;;;;;4989750;28;20613;-87
2022/08/01 00:08:40;;;;;;;0.00;0.00;;;20.00;99.90;;;;;;4986271;28;20555;-87
2022/08/01 00:11:11;;;;;;;0.00;0.00;;;20.00;99.90;;;;;;4993821;28;20651;-88
2022/08/01 00:13:43;;;;;;;0.00;0.00;;;20.00;99.90;;;;;;4993282;28;20447;-94
2022/08/01 00:16:13;;;;;;;0.00;0.00;;;20.00;99.90;;;;;;5008006;28;20757;-94
2022/08/01 00:18:41;;;;;;;0.00;0.00;;;20.00;99.90;;;;;;4986708;28;20522;-89
2022/08/01 00:21:10;;;;;;;0.00;0.00;;;20.10;99.90;;;;;;4986468;28;20517;-88
2022/08/01 00:23:38;;;;;;;0.00;0.00;;;20.10;99.90;;;;;;4985395;28;20451;-89
2022/08/01 00:26:09;;;;;;;0.00;0.00;;;20.10;99.90;;;;;;4985386;28;20478;-91
2022/08/01 00:28:37;;;;;;;0.00;0.00;;;20.10;99.90;;;;;;4983438;28;20451;-89
2022/08/01 00:31:05;;;;;;;0.00;0.00;;;20.10;99.90;;;;;;4985677;28;20812;-88
2022/08/01 00:33:33;;;;;;;0.00;0.00;;;20.10;99.90;;;;;;4984936;28;20489;-90
2022/08/01 00:36:01;;;;;;;0.00;0.00;;;20.10;99.90;;;;;;4983480;28;20556;-89
2022/08/01 00:38:31;;;;;;;0.00;0.00;;;20.10;99.90;;;;;;4985032;28;20483;-87
2022/08/01 00:40:59;;;;;;;0.00;0.00;;;20.10;99.90;;;;;;4984955;28;20458;-89
2022/08/01 00:43:27;;;;;;;0.00;0.00;;;20.10;99.90;;;;;;4986022;28;20929;-92
2022/08/01 00:45:55;;;;;;;0.00;0.00;;;20.10;99.90;;;;;;4988602;28;20451;-91
2022/08/01 00:48:25;;;;;;;0.00;0.00;;;20.10;99.90;;;;;;4991265;28;20750;-87
2022/08/01 00:50:53;;;;;;;0.00;0.00;;;20.10;99.90;;;;;;4990550;28;20547;-89
2022/08/01 00:53:29;;;;;;;0.00;0.00;;;20.00;99.90;;;;;;4989995;28;21056;-89
2022/08/01 00:56:19;;;;;;;0.00;0.00;;;20.00;99.90;;;;;;4987719;28;20754;-88
2022/08/01 00:58:47;;;;;;;0.00;0.00;;;20.00;99.90;;;;;;4987859;28;20490;-90
2022/08/01 01:01:17;;;;;;;0.00;0.00;;;20.00;99.90;;;;;;4970392;28;20562;-88
2022/08/01 01:03:46;;;;;;;0.00;0.00;;;20.00;99.90;;;;;;4984218;28;21173;-88
2022/08/01 01:06:42;;;;;;;0.00;0.00;;;19.90;99.90;;;;;;4986883;28;20451;-88
2022/08/01 01:09:20;;;;;;;0.00;0.00;;;19.90;99.90;;;;;;4988773;28;20455;-89
2022/08/01 01:12:07;;;;;;;0.00;0.00;;;19.90;99.90;;;;;;4986778;28;20762;-91
2022/08/01 01:14:48;;;;;;;0.00;0.00;;;19.90;99.90;;;;;;4986796;28;20447;-92
2022/08/01 01:17:20;;;;;;;0.00;0.00;;;19.90;99.90;;;;;;4993687;28;20969;-90
2022/08/01 01:20:12;;;;;;;0.00;0.00;;;19.90;99.90;;;;;;4984225;28;20434;-90
2022/08/01 01:22:54;;;;;;;0.00;0.00;;;19.90;99.90;;;;;;4985550;28;20525;-88
2022/08/01 01:25:36;;;;;;;0.00;0.00;;;19.90;99.90;;;;;;4986291;28;20628;-88
2022/08/01 01:28:18;;;;;;;0.00;0.00;;;19.90;99.90;;;;;;4985118;28;20509;-91
2022/08/01 01:31:01;;;;;;;0.00;0.00;;;19.90;99.90;;;;;;4989622;28;20546;-90
2022/08/01 01:33:40;;;;;;;0.00;0.00;;;19.90;99.90;;;;;;4989745;28;20455;-91
2022/08/01 01:36:16;;;;;;;0.00;0.00;;;19.90;99.90;;;;;;4991759;28;20828;-89
2022/08/01 01:38:49;;;;;;;0.00;0.00;;;19.80;99.90;;;;;;4993306;28;20479;-90
2022/08/01 01:41:19;;;;;;;0.00;0.00;;;19.90;99.90;;;;;;4993583;28;20505;-90
2022/08/01 01:43:50;;;;;;;0.00;0.00;;;19.80;99.90;;;;;;4990671;28;20455;-92
2022/08/01 01:46:26;;;;;;;0.00;0.00;;;19.80;99.90;;;;;;4990104;28;20447;-90
2022/08/01 01:48:57;;;;;;;0.00;0.00;;;19.90;99.90;;;;;;4989457;28;20455;-91
2022/08/01 01:51:28;;;;;;;0.00;0.00;;;19.80;99.90;;;;;;4988654;28;20451;-91
2022/08/01 01:54:01;;;;;;;0.00;0.00;;;19.80;99.90;;;;;;4989204;28;20529;-90
2022/08/01 01:56:31;;;;;;;0.00;0.00;;;19.80;99.90;;;;;;4990758;28;20459;-90
2022/08/01 01:59:02;;;;;;;0.00;0.00;;;19.70;99.90;;;;;;4991329;28;20524;-90
2022/08/01 02:01:35;;;;;;;0.00;0.00;;;19.80;99.90;;;;;;4991979;28;20684;-91
2022/08/01 02:04:28;;;;;;;0.00;0.00;;;19.80;99.90;;;;;;4990727;28;20546;-90
2022/08/01 02:06:59;;;;;;;0.00;0.00;;;19.70;99.90;;;;;;4990538;28;20458;-92
2022/08/01 02:09:31;;;;;;;0.00;0.00;;;19.60;99.90;;;;;;4989538;28;20939;-90
2022/08/01 02:12:03;;;;;;;0.00;0.00;;;19.60;99.90;;;;;;4988423;28;20619;-92
2022/08/01 02:14:36;;;;;;;0.00;0.00;;;19.60;99.90;;;;;;5007423;28;20529;-94
2022/08/01 02:23:36;;;;;;;0.00;0.00;;;19.50;99.90;;;;;;5041031;28;20480;-90
2022/08/01 02:26:08;;;;;;;0.00;0.00;;;19.40;99.90;;;;;;5050622;28;20456;-92
2022/08/01 02:28:44;;;;;;;0.00;0.00;;;19.40;99.90;;;;;;5040147;28;20476;-91
2022/08/01 02:31:15;;;;;;;0.00;0.00;;;19.40;99.90;;;;;;5028337;28;20461;-92
2022/08/01 02:33:45;;;;;;;0.00;0.00;;;19.30;99.90;;;;;;5028686;28;21032;-90
2022/08/01 02:36:15;;;;;;;0.00;0.00;;;19.30;99.90;;;;;;5027739;28;20455;-90
2022/08/01 02:39:04;;;;;;;0.00;0.00;;;19.30;99.90;;;;;;5029517;28;20813;-90
2022/08/01 02:41:36;;;;;;;0.00;0.00;;;19.30;99.90;;;;;;5030210;28;20950;-90
2022/08/01 02:44:08;;;;;;;0.00;0.00;;;19.20;99.90;;;;;;5028412;28;20468;-90
2022/08/01 02:46:39;;;;;;;0.00;0.00;;;19.20;99.90;;;;;;5028614;28;20508;-90
2022/08/01 02:49:10;;;;;;;0.00;0.00;;;19.20;99.90;;;;;;5028773;28;20761;-91
2022/08/01 02:51:41;;;;;;;0.00;0.00;;;19.20;99.90;;;;;;5029413;28;20465;-91
2022/08/01 02:54:12;;;;;;;0.00;0.00;;;19.20;99.90;;;;;;5028640;28;20457;-90
2022/08/01 02:56:42;;;;;;;0.00;0.00;;;19.20;99.90;;;;;;5027680;28;20536;-90
2022/08/01 02:59:21;;;;;;;0.00;0.00;;;19.20;99.90;;;;;;5028651;28;20645;-91
2022/08/01 03:01:52;;;;;;;0.00;0.00;;;19.20;99.90;;;;;;5027990;28;20468;-91
2022/08/01 03:04:24;;;;;;;0.00;0.00;;;19.20;99.90;;;;;;5027657;28;20838;-90
2022/08/01 03:06:58;;;;;;;0.00;0.00;;;19.20;99.90;;;;;;5026839;28;21006;-89
2022/08/01 03:09:30;;;;;;;0.00;0.00;;;19.20;99.90;;;;;;5027358;28;20461;-90
2022/08/01 03:12:05;;;;;;;0.00;0.00;;;19.20;99.90;;;;;;5027313;28;20477;-89
2022/08/01 03:14:40;;;;;;;0.00;0.00;;;19.30;99.90;;;;;;5027457;28;20456;-91
2022/08/01 03:17:11;;;;;;;0.00;0.00;;;19.30;99.90;;;;;;5027116;28;20452;-90
2022/08/01 03:19:40;;;;;;;0.00;0.00;;;19.30;99.90;;;;;;5026767;28;20476;-91
2022/08/01 03:22:15;;;;;;;0.00;0.00;;;19.30;99.90;;;;;;5026822;28;20924;-90
2022/08/01 03:24:48;;;;;;;0.00;0.00;;;19.30;99.90;;;;;;5036206;28;20425;-89
2022/08/01 03:27:26;;;;;;;0.00;0.00;;;19.30;99.90;;;;;;5042362;28;20457;-90
2022/08/01 03:29:58;;;;;;;0.00;0.00;;;19.30;99.90;;;;;;5027793;28;20511;-89
2022/08/01 03:32:37;;;;;;;0.00;0.00;;;19.30;99.90;;;;;;5028096;28;20598;-90
2022/08/01 03:35:27;;;;;;;0.00;0.00;;;19.30;99.90;;;;;;5027064;28;20464;-91
2022/08/01 03:37:59;;;;;;;0.00;0.00;;;19.30;99.90;;;;;;5026987;28;20800;-89
2022/08/01 03:40:54;;;;;;;0.00;0.00;;;19.30;99.90;;;;;;5027989;28;20481;-90
2022/08/01 03:43:41;;;;;;;0.00;0.00;;;19.20;99.90;;;;;;5028728;28;20483;-91
2022/08/01 03:46:52;;;;;;;0.00;0.00;;;19.20;99.90;;;;;;5027555;28;20492;-92
2022/08/01 04:16:46;;;;;;;0.00;0.00;;;19.20;99.90;;;;;;4759901;29;20513;-89
2022/08/01 04:19:16;;;;;;;0.00;0.00;;;19.20;99.90;;;;;;4805858;29;20465;-90
2022/08/01 04:26:10;;;;;;;0.00;0.00;;;19.40;99.90;;;;;;4759131;29;20468;-89
2022/08/01 04:28:59;;;;;;;0.00;0.00;;;19.40;99.90;;;;;;4762678;29;21125;-90
2022/08/01 04:35:17;;;;;;;0.00;0.00;;;19.50;99.90;;;;;;4934141;29;21054;-91
2022/08/01 04:41:48;;;;;;;0.00;0.00;;;19.60;99.90;;;;;;4926021;23;20792;-69
2022/08/01 04:44:17;;;;;;;0.00;0.00;;;19.60;99.90;;;;;;5018661;28;20484;-70
2022/08/01 04:46:48;;;;;;;0.00;0.00;;;19.70;99.90;;;;;;5018470;28;20448;-70
2022/08/01 04:49:17;;;;;;;0.00;0.00;;;19.70;99.90;;;;;;5018734;28;20473;-69
2022/08/01 04:51:57;;;;;;;0.00;0.00;;;19.70;99.90;;;;;;5018402;28;20433;-69
2022/08/01 04:54:25;;;;;;;0.00;0.00;;;19.70;99.90;;;;;;5018447;28;20805;-69
2022/08/01 04:56:59;;;;;;;0.00;0.00;;;19.80;99.90;;;;;;5018526;28;20738;-69
2022/08/01 04:59:42;;;;;;;0.00;0.00;;;19.80;99.90;;;;;;5018842;28;20441;-69
2022/08/01 05:02:12;;;;;;;0.00;0.00;;;19.80;99.90;;;;;;5005108;28;20520;-69
2022/08/01 05:04:41;;;;;;;0.00;0.00;;;19.80;99.90;;;;;;4999393;28;20537;-69
2022/08/01 05:07:10;;;;;;;0.00;0.00;;;19.70;99.90;;;;;;5007670;28;20537;-69
2022/08/01 05:09:39;;;;;;;0.00;0.00;;;19.60;99.90;;;;;;5006755;28;20446;-69
2022/08/01 05:12:12;;;;;;;0.00;0.00;;;19.50;99.90;;;;;;4999157;28;20723;-70
2022/08/01 05:14:47;;;;;;;0.00;0.00;;;19.40;99.90;;;;;;4998797;28;20612;-70
2022/08/01 05:17:16;;;;;;;0.00;0.00;;;19.30;99.90;;;;;;4998501;28;20548;-69
2022/08/01 05:19:47;;;;;;;0.00;0.00;;;19.20;99.90;;;;;;5009985;28;21040;-69
2022/08/01 05:22:15;;;;;;;0.00;0.00;;;19.10;99.90;;;;;;5016461;28;20465;-70
2022/08/01 05:24:46;;;;;;;0.00;0.00;;;19.00;99.90;;;;;;5018984;28;20478;-70
2022/08/01 05:27:18;;;;;;;0.00;0.00;;;19.00;99.90;;;;;;5021927;28;20547;-69
2022/08/01 05:29:50;;;;;;;0.00;0.00;;;19.00;99.90;;;;;;5007650;28;20438;-70
2022/08/01 05:32:18;;;;;;;0.00;0.00;;;19.00;99.90;;;;;;5001417;28;20586;-69
2022/08/01 05:34:46;;;;;;;0.00;0.00;;;19.00;99.90;;;;;;4998545;28;20445;-70
2022/08/01 05:37:14;;;;;;;0.00;0.00;;;19.00;99.90;;;;;;4998536;28;20514;-69
2022/08/01 05:39:42;;;;;;;0.00;0.00;;;19.00;99.90;;;;;;4998353;28;21018;-69
2022/08/01 05:42:10;;;;;;;0.00;0.00;;;19.00;99.90;;;;;;4998101;28;20456;-69
2022/08/01 05:44:41;;;;;;;0.00;0.00;;;19.00;99.90;;;;;;4998611;28;20453;-71
2022/08/01 05:47:12;;;;;;;0.00;0.00;;;19.10;99.90;;;;;;4998485;28;20449;-70
2022/08/01 05:49:54;;;;;;;0.00;0.00;;;19.10;99.90;;;;;;5013368;28;20476;-70
2022/08/01 05:52:22;;;;;;;0.00;0.00;;;19.20;99.90;;;;;;5019401;28;20441;-69
2022/08/01 05:54:50;;;;;;;0.00;0.00;;;19.20;99.90;;;;;;5018571;28;20456;-75
2022/08/01 05:57:21;;;;;;;0.00;0.00;;;19.20;99.90;;;;;;5023403;28;20463;-72
2022/08/01 05:59:50;;;;;;;0.00;0.00;;;19.10;99.90;;;;;;5014478;28;20850;-78
2022/08/01 06:02:18;;;;;;;0.00;0.00;;;19.20;99.90;;;;;;5025586;28;20479;-79
2022/08/01 06:04:52;;;;;;;0.00;0.00;;;19.20;99.90;;;;;;5023501;28;20465;-78
2022/08/01 06:07:20;;;;;;;0.00;0.00;;;19.20;99.90;;;;;;5023313;28;20571;-79
2022/08/01 06:09:55;;;;;;;0.00;0.00;;;19.20;99.90;;;;;;5021845;28;20449;-77
2022/08/01 06:12:23;;;;;;;0.00;0.00;;;19.30;99.90;;;;;;5029091;28;20590;-78
2022/08/01 06:14:52;;;;;;;0.00;0.00;;;19.30;99.90;;;;;;5027883;28;20602;-79
2022/08/01 06:17:20;;;;;;;0.00;0.00;;;19.30;99.90;;;;;;5017015;28;20657;-80
2022/08/01 06:19:55;;;;;;;0.00;0.00;;;19.40;99.90;;;;;;5023665;28;20977;-80
2022/08/01 06:22:23;;;;;;;0.00;0.00;;;19.60;99.90;;;;;;5020778;28;20647;-77
2022/08/01 06:24:58;;;;;;;0.00;0.00;;;19.70;99.90;;;;;;5023255;28;20465;-79
2022/08/01 06:27:26;;;;;;;0.00;0.00;;;19.80;99.90;;;;;;5009417;28;20473;-77
2022/08/01 06:29:58;;;;;;;0.00;0.00;;;19.80;99.90;;;;;;5012940;28;20457;-77
2022/08/01 06:32:29;;;;;;;0.00;0.00;;;19.80;99.90;;;;;;5015608;28;20947;-77
2022/08/01 06:34:57;;;;;;;0.00;0.00;;;19.80;99.90;;;;;;5015619;28;20504;-78
2022/08/01 06:37:31;;;;;;;0.00;0.00;;;19.70;99.90;;;;;;5016070;28;20567;-76
2022/08/01 06:40:04;;;;;;;0.00;0.00;;;19.70;99.90;;;;;;5012756;28;20565;-77
2022/08/01 06:42:35;;;;;;;0.00;0.00;;;19.60;99.90;;;;;;5010164;28;20477;-81
2022/08/01 06:45:05;;;;;;;0.00;0.00;;;19.50;99.90;;;;;;5023962;28;20938;-73
2022/08/01 06:47:33;;;;;;;0.00;0.00;;;19.50;99.90;;;;;;5013507;28;20520;-77
2022/08/01 06:50:00;;;;;;;0.00;0.00;;;19.60;99.90;;;;;;5017470;28;20452;-73
2022/08/01 06:52:28;;;;;;;0.00;0.00;;;19.60;99.90;;;;;;5005736;28;20472;-77
2022/08/01 06:54:56;;;;;;;0.00;0.00;;;19.60;99.90;;;;;;5013649;28;20458;-78
2022/08/01 06:57:24;;;;;;;0.00;0.00;;;19.50;99.90;;;;;;5006450;28;20495;-79
2022/08/01 06:59:55;;;;;;;0.00;0.00;;;19.60;99.90;;;;;;5012200;28;20446;-77
2022/08/01 07:02:24;;;;;;;0.00;0.00;;;19.60;99.90;;;;;;5007369;28;20484;-79
2022/08/01 07:04:52;;;;;;;0.00;0.00;;;19.70;99.90;;;;;;5014844;28;20770;-75
2022/08/01 07:07:20;;;;;;;0.00;0.00;;;19.80;99.90;;;;;;5010578;28;20725;-78
2022/08/01 07:09:48;;;;;;;0.00;0.00;;;19.90;99.90;;;;;;5011644;28;20468;-78
2022/08/01 07:12:18;;;;;;;0.00;0.00;;;20.10;99.90;;;;;;5000660;28;20934;-78
2022/08/01 07:14:46;;;;;;;0.00;0.00;;;20.20;99.90;;;;;;5011192;28;20446;-76
2022/08/01 07:17:16;;;;;;;0.00;0.00;;;20.30;99.90;;;;;;5028372;28;20472;-75
2022/08/01 07:19:46;;;;;;;0.00;0.00;;;20.30;99.90;;;;;;5007337;28;20453;-76
2022/08/01 07:22:14;;;;;;;0.00;0.00;;;20.30;99.90;;;;;;5005014;28;20608;-76
2022/08/01 07:24:50;;;;;;;0.00;0.00;;;20.10;99.90;;;;;;5013083;28;21030;-75
2022/08/01 07:27:21;;;;;;;0.00;0.00;;;20.00;99.90;;;;;;5013248;28;20493;-76
2022/08/01 07:29:52;;;;;;;0.00;0.00;;;19.90;99.90;;;;;;5002631;28;20932;-75
2022/08/01 07:32:20;;;;;;;0.00;0.00;;;19.90;99.90;;;;;;5016791;28;20458;-75
2022/08/01 07:34:49;;;;;;;0.00;0.00;;;19.90;99.90;;;;;;5005454;28;20469;-76
2022/08/01 07:37:17;;;;;;;0.00;0.00;;;19.90;99.90;;;;;;5006627;28;20469;-76
2022/08/01 07:40:06;;;;;;;0.00;0.00;;;19.90;99.90;;;;;;5008415;28;20461;-77
2022/08/01 07:42:34;;;;;;;0.00;0.00;;;19.90;99.90;;;;;;5009614;28;21039;-71
2022/08/01 07:45:02;;;;;;;0.00;0.00;;;19.90;99.90;;;;;;5010302;28;20912;-76
2022/08/01 07:47:30;;;;;;;0.00;0.00;;;19.90;99.90;;;;;;5016457;28;20550;-77
2022/08/01 07:50:02;;;;;;;0.00;0.00;;;19.90;99.90;;;;;;5003927;28;20943;-78
2022/08/01 07:52:30;;;;;;;0.00;0.00;;;19.90;99.90;;;;;;5002107;28;20463;-76
2022/08/01 07:54:59;;;;;;;0.00;0.00;;;19.90;99.90;;;;;;5008624;28;21058;-77
2022/08/01 07:57:27;;;;;;;0.00;0.00;;;19.90;99.90;;;;;;5010766;28;20480;-78
2022/08/01 07:59:55;;;;;;;0.00;0.00;;;20.00;99.90;;;;;;5006231;28;20446;-77
2022/08/01 08:02:23;;;;;;;0.00;0.00;;;20.10;99.90;;;;;;5000394;28;20474;-77
2022/08/01 08:04:51;;;;;;;0.00;0.00;;;20.20;99.90;;;;;;5012383;28;20535;-78
2022/08/01 08:07:20;;;;;;;0.00;0.00;;;20.30;99.90;;;;;;5020237;28;20472;-78
2022/08/01 08:09:48;;;;;;;0.00;0.00;;;20.30;99.90;;;;;;5015259;28;20465;-77
2022/08/01 08:12:18;;;;;;;0.00;0.00;;;20.40;99.90;;;;;;5001759;28;20450;-77
2022/08/01 08:14:58;;;;;;;0.00;0.00;;;20.50;99.90;;;;;;5001271;28;20438;-79
2022/08/01 08:17:26;;;;;;;0.00;0.00;;;20.50;99.90;;;;;;5003994;28;20462;-77
2022/08/01 08:19:54;;;;;;;0.00;0.00;;;20.50;99.90;;;;;;5003184;28;20537;-77
2022/08/01 08:22:23;;;;;;;0.00;0.00;;;20.50;99.90;;;;;;5003236;28;20485;-78
2022/08/01 08:24:51;;;;;;;0.00;0.00;;;20.60;99.90;;;;;;5001573;28;20446;-76
2022/08/01 08:27:19;;;;;;;0.00;0.00;;;20.60;99.90;;;;;;5004563;28;20470;-78
2022/08/01 08:29:47;;;;;;;0.00;0.00;;;20.60;99.90;;;;;;5000743;28;20460;-76
2022/08/01 08:32:14;;;;;;;0.00;0.00;;;20.50;99.90;;;;;;5007862;28;20475;-75
2022/08/01 08:34:42;;;;;;;0.00;0.00;;;20.50;99.90;;;;;;5006837;28;20746;-77
2022/08/01 08:37:10;;;;;;;0.00;0.00;;;20.50;99.90;;;;;;5009349;28;20460;-75
2022/08/01 08:39:41;;;;;;;0.00;0.00;;;20.50;99.90;;;;;;5010218;28;20481;-75
2022/08/01 08:42:09;;;;;;;0.00;0.00;;;20.50;99.90;;;;;;5008492;28;20568;-81
2022/08/01 08:44:38;;;;;;;0.00;0.00;;;20.40;99.90;;;;;;5006237;28;20456;-75
2022/08/01 08:47:12;;;;;;;0.00;0.00;;;20.40;99.90;;;;;;4998562;28;20438;-74
2022/08/01 08:49:47;;;;;;;0.00;0.00;;;20.30;99.90;;;;;;5008191;28;20736;-75
2022/08/01 08:52:18;;;;;;;0.00;0.00;;;20.40;99.90;;;;;;5013861;28;20488;-75
2022/08/01 08:54:49;;;;;;;0.00;0.00;;;20.50;99.90;;;;;;5019026;28;20454;-75
2022/08/01 08:57:19;;;;;;;0.00;0.00;;;20.30;99.90;;;;;;5010003;28;20473;-75
2022/08/01 08:59:48;;;;;;;0.00;0.00;;;20.10;99.90;;;;;;5000507;28;20611;-75
2022/08/01 09:02:15;;;;;;;0.00;0.00;;;19.90;99.90;;;;;;5016550;28;21086;-75
2022/08/01 09:04:44;;;;;;;0.00;0.00;;;19.70;99.90;;;;;;5022411;28;20946;-75
2022/08/01 09:07:13;;;;;;;0.00;0.00;;;19.60;99.90;;;;;;5018588;28;20774;-75
2022/08/01 09:09:41;;;;;;;0.00;0.00;;;19.60;99.90;;;;;;5017961;28;20881;-75
2022/08/01 09:12:12;;;;;;;0.00;0.00;;;19.70;99.90;;;;;;5014928;28;20473;-76
2022/08/01 09:14:46;;;;;;;0.00;0.00;;;19.90;99.90;;;;;;5005071;28;20627;-75
2022/08/01 09:17:16;;;;;;;0.00;0.00;;;20.10;99.90;;;;;;5010603;28;20839;-76
2022/08/01 09:19:47;;;;;;;0.00;0.00;;;20.50;99.90;;;;;;4998139;28;20760;-75
2022/08/01 09:22:18;;;;;;;0.00;0.00;;;20.70;99.90;;;;;;4997780;28;20478;-75
2022/08/01 09:24:59;;;;;;;0.00;0.00;;;20.70;99.90;;;;;;5001312;28;20656;-75
2022/08/01 09:27:29;;;;;;;0.00;0.00;;;20.50;99.90;;;;;;5013671;28;20471;-75
2022/08/01 09:30:09;;;;;;;0.00;0.00;;;20.30;99.90;;;;;;5006457;28;20916;-75
2022/08/01 09:32:53;;;;;;;0.00;0.00;;;20.30;99.90;;;;;;5015988;28;20442;-77
2022/08/01 09:35:25;;;;;;;0.00;0.00;;;20.30;99.90;;;;;;5011781;28;20788;-74
2022/08/01 09:38:27;;;;;;;0.00;0.00;;;20.20;99.90;;;;;;5018335;28;20983;-75
2022/08/01 09:41:00;;;;;;;0.00;0.00;;;20.20;99.90;;;;;;4969226;28;20888;-75
2022/08/01 09:43:31;;;;;;;0.00;0.00;;;20.20;99.90;;;;;;5015449;28;20511;-74
2022/08/01 09:46:00;;;;;;;0.00;0.00;;;20.30;99.90;;;;;;5017360;28;20436;-74
2022/08/01 09:48:28;;;;;;;0.00;0.00;;;20.30;99.90;;;;;;5016757;28;20598;-75
2022/08/01 09:50:58;;;;;;;0.00;0.00;;;20.40;99.90;;;;;;5017935;28;20441;-75
2022/08/01 09:53:47;;;;;;;0.00;0.00;;;20.40;99.90;;;;;;5020648;28;20441;-75
2022/08/01 09:56:21;;;;;;;0.00;0.00;;;20.40;99.90;;;;;;5020736;28;20457;-75
2022/08/01 09:58:53;;;;;;;0.00;0.00;;;20.40;99.90;;;;;;5020758;28;20715;-77
2022/08/01 10:01:27;;;;;;;0.00;0.00;;;20.40;99.90;;;;;;5024325;28;20871;-79
2022/08/01 10:04:06;;;;;;;0.00;0.00;;;20.50;99.90;;;;;;5024956;28;20476;-80
2022/08/01 10:06:37;;;;;;;0.00;0.00;;;20.50;99.90;;;;;;5024843;28;20998;-79
2022/08/01 10:09:10;;;;;;;0.00;0.00;;;20.50;99.90;;;;;;5028867;28;20441;-82
2022/08/01 10:11:39;;;;;;;0.00;0.00;;;20.60;99.90;;;;;;5030856;28;20425;-80
2022/08/01 10:14:13;;;;;;;0.00;0.00;;;20.70;99.90;;;;;;5021883;28;20437;-74
2022/08/01 10:16:46;;;;;;;0.00;0.00;;;20.70;99.90;;;;;;5007924;28;20609;-74
2022/08/01 10:19:35;;;;;;;0.00;0.00;;;20.70;99.90;;;;;;5014130;28;20771;-74
2022/08/01 10:22:08;;;;;;;0.00;0.00;;;20.70;99.90;;;;;;5020571;28;20864;-74
2022/08/01 10:24:38;;;;;;;0.00;0.00;;;20.70;99.90;;;;;;5020746;28;20687;-74
2022/08/01 10:27:08;;;;;;;0.00;0.00;;;20.80;99.90;;;;;;5019804;28;20889;-74
2022/08/01 10:29:46;;;;;;;0.00;0.00;;;20.90;99.90;;;;;;5020585;28;20971;-74
2022/08/01 10:32:35;;;;;;;0.00;0.00;;;21.00;99.90;;;;;;5020234;28;21071;-74
2022/08/01 10:35:08;;;;;;;0.00;0.00;;;21.00;99.90;;;;;;5020295;28;20882;-74
2022/08/01 10:37:43;;;;;;;0.00;0.00;;;21.10;99.90;;;;;;5020634;28;20991;-75
2022/08/01 10:40:21;;;;;;;0.00;0.00;;;21.10;99.90;;;;;;5020290;28;20867;-71
2022/08/01 10:42:58;;;;;;;0.00;0.00;;;21.20;99.90;;;;;;5026622;28;20481;-68
2022/08/01 10:45:28;;;;;;;0.00;0.00;;;21.30;99.90;;;;;;5021459;28;20441;-68
2022/08/01 10:48:03;;;;;;;0.00;0.00;;;21.40;99.90;;;;;;5021307;28;20496;-68
2022/08/01 10:50:35;;;;;;;0.00;0.00;;;21.40;99.90;;;;;;5021090;28;21016;-68
2022/08/01 10:53:12;;;;;;;0.00;0.00;;;21.40;99.90;;;;;;5021175;28;20433;-69
2022/08/01 10:55:48;;;;;;;0.00;0.00;;;21.40;99.90;;;;;;5017860;28;20484;-68
2022/08/01 10:58:21;;;;;;;0.00;0.00;;;21.50;99.90;;;;;;5007264;28;20575;-68
2022/08/01 11:01:27;;;;;;;0.00;0.00;;;21.50;99.90;;;;;;5017666;28;20766;-68
2022/08/01 11:04:04;;;;;;;0.00;0.00;;;21.60;99.90;;;;;;5000625;28;21105;-67
2022/08/01 11:06:54;;;;;;;0.00;0.00;;;21.60;99.90;;;;;;5008252;28;20800;-68
2022/08/01 11:09:27;;;;;;;0.00;0.00;;;21.70;99.90;;;;;;5009107;28;20533;-67
2022/08/01 11:12:08;;;;;;;0.00;0.00;;;21.70;99.90;;;;;;5003681;28;20464;-67
2022/08/01 11:15:13;;;;;;;0.00;0.00;;;21.70;99.90;;;;;;5002746;28;20486;-67
2022/08/01 11:17:47;;;;;;;0.00;0.00;;;21.60;99.90;;;;;;5002743;28;20481;-67
2022/08/01 11:20:17;;;;;;;0.00;0.00;;;21.60;99.90;;;;;;5017434;28;20445;-67
2022/08/01 11:23:25;;;;;;;0.00;0.00;;;21.70;99.90;;;;;;5008136;28;20452;-67
2022/08/01 11:26:10;;;;;;;0.00;0.00;;;21.70;99.90;;;;;;5002291;28;20953;-67
2022/08/01 11:28:39;;;;;;;0.00;0.00;;;21.80;99.90;;;;;;4999569;28;20454;-67
2022/08/01 11:31:28;;;;;;;0.00;0.00;;;21.90;99.90;;;;;;5016742;28;20919;-67
2022/08/01 11:33:57;;;;;;;0.00;0.00;;;21.90;99.90;;;;;;5020215;28;20433;-68
2022/08/01 11:36:30;;;;;;;0.00;0.00;;;22.00;99.90;;;;;;5019936;28;20448;-66
2022/08/01 11:39:18;;;;;;;0.00;0.00;;;22.10;99.90;;;;;;5019626;28;20434;-67
2022/08/01 11:41:49;;;;;;;0.00;0.00;;;22.10;99.90;;;;;;5019240;28;20445;-67
2022/08/01 11:44:19;;;;;;;0.00;0.00;;;22.10;99.90;;;;;;5019195;28;21005;-66
2022/08/01 11:46:59;;;;;;;0.00;0.00;;;22.10;99.90;;;;;;5019310;28;20608;-69
2022/08/01 11:49:32;;;;;;;0.00;0.00;;;22.20;99.90;;;;;;5016013;28;20445;-66
2022/08/01 11:52:02;;;;;;;0.00;0.00;;;22.20;99.90;;;;;;5012099;28;20449;-67
2022/08/01 11:54:33;;;;;;;0.00;0.00;;;22.30;99.90;;;;;;5014585;28;20445;-66
2022/08/01 11:57:06;;;;;;;0.00;0.00;;;22.30;99.90;;;;;;4998996;28;20556;-66
2022/08/01 11:59:38;;;;;;;0.00;0.00;;;22.20;99.90;;;;;;5006505;28;20797;-67
2022/08/01 12:02:28;;;;;;;0.00;0.00;;;22.10;99.90;;;;;;5018548;28;20438;-66
2022/08/01 12:05:00;;;;;;;0.00;0.00;;;22.10;99.90;;;;;;5000486;28;20798;-66
2022/08/01 12:07:31;;;;;;;0.00;0.00;;;22.10;99.90;;;;;;4999024;28;20842;-66
2022/08/01 12:10:01;;;;;;;0.00;0.00;;;22.00;99.90;;;;;;4998210;28;20775;-65
2022/08/01 12:12:31;;;;;;;0.00;0.00;;;22.00;99.90;;;;;;5004226;28;20465;-78
2022/08/01 12:15:00;;;;;;;0.00;0.00;;;22.10;99.90;;;;;;5010753;28;20920;-76
2022/08/01 12:17:30;;;;;;;0.00;0.00;;;22.10;99.90;;;;;;5018469;28;20481;-76
2022/08/01 12:19:59;;;;;;;0.00;0.00;;;22.10;99.90;;;;;;5018897;28;20449;-76
2022/08/01 12:22:27;;;;;;;0.00;0.00;;;22.10;99.90;;;;;;5010518;28;20964;-72
2022/08/01 12:24:56;;;;;;;0.00;0.00;;;22.20;99.90;;;;;;5005350;28;20496;-72
2022/08/01 12:27:27;;;;;;;0.00;0.00;;;22.20;99.90;;;;;;5010425;28;20696;-72
2022/08/01 12:29:56;;;;;;;0.00;0.00;;;22.20;99.90;;;;;;5014657;28;20723;-75
2022/08/01 12:32:29;;;;;;;0.00;0.00;;;22.20;99.90;;;;;;5018055;28;20428;-72
2022/08/01 12:35:06;;;;;;;0.00;0.00;;;22.10;99.90;;;;;;5017116;28;20530;-72
2022/08/01 12:37:37;;;;;;;0.00;0.00;;;22.20;99.90;;;;;;5017617;28;20450;-72
2022/08/01 12:40:17;;;;;;;0.00;0.00;;;22.20;99.90;;;;;;5014903;28;20691;-72
2022/08/01 12:42:52;;;;;;;0.00;0.00;;;22.20;99.90;;;;;;5017614;28;20469;-75
2022/08/01 12:45:24;;;;;;;0.00;0.00;;;22.20;99.90;;;;;;5010653;28;20563;-72
2022/08/01 12:47:53;;;;;;;0.00;0.00;;;22.20;99.90;;;;;;5003510;28;20462;-72
2022/08/01 12:50:27;;;;;;;0.00;0.00;;;22.10;99.90;;;;;;5015339;28;20561;-72
2022/08/01 12:52:59;;;;;;;0.00;0.00;;;22.00;99.90;;;;;;5022898;28;20520;-80
2022/08/01 12:55:28;;;;;;;0.00;0.00;;;22.00;99.90;;;;;;5023119;28;20442;-74
2022/08/01 12:58:06;;;;;;;0.00;0.00;;;21.90;99.90;;;;;;5012250;28;21012;-74
2022/08/01 13:00:44;;;;;;;0.00;0.00;;;21.90;99.90;;;;;;5007805;28;20476;-70
2022/08/01 13:03:59;;;;;;;0.00;0.00;;;21.90;99.90;;;;;;5013691;28;20962;-72
2022/08/01 13:06:32;;;;;;;0.00;0.00;;;21.80;99.90;;;;;;5015247;28;20945;-75
2022/08/01 13:09:05;;;;;;;0.00;0.00;;;21.80;99.90;;;;;;5004604;28;21026;-76
2022/08/01 13:11:33;;;;;;;0.00;0.00;;;21.90;99.90;;;;;;5007728;28;20538;-76
2022/08/01 13:14:01;;;;;;;0.00;0.00;;;21.90;99.90;;;;;;5015927;28;22546;-75
2022/08/01 13:16:29;;;;;;;0.00;0.00;;;21.90;99.90;;;;;;5017812;28;21072;-74
2022/08/01 13:19:20;;;;;;;0.00;0.00;;;22.00;99.90;;;;;;5017175;28;20442;-75
2022/08/01 13:21:57;;;;;;;0.00;0.00;;;21.90;99.90;;;;;;5019527;28;20430;-74
2022/08/01 13:24:27;;;;;;;0.00;0.00;;;22.00;99.90;;;;;;5018534;28;20472;-74
2022/08/01 13:26:59;;;;;;;0.00;0.00;;;21.90;99.90;;;;;;5022409;28;20536;-74
2022/08/01 13:29:32;;;;;;;0.00;0.00;;;21.90;99.90;;;;;;5021613;28;20495;-77
2022/08/01 13:32:00;;;;;;;0.00;0.00;;;21.90;99.90;;;;;;5023002;28;20440;-75
2022/08/01 13:34:32;;;;;;;0.00;0.00;;;21.80;99.90;;;;;;5022683;28;20536;-75
2022/08/01 13:37:02;;;;;;;0.00;0.00;;;21.90;99.90;;;;;;5022521;28;20451;-75
2022/08/01 13:39:44;;;;;;;0.00;0.00;;;21.90;99.90;;;;;;5014917;28;20467;-74
2022/08/01 13:42:13;;;;;;;0.00;0.00;;;22.00;99.90;;;;;;5010813;28;20541;-77
2022/08/01 13:44:46;;;;;;;0.00;0.00;;;21.90;99.90;;;;;;5025506;28;21175;-77
2022/08/01 13:47:14;;;;;;;0.00;0.00;;;21.90;99.90;;;;;;5025451;28;20463;-77
2022/08/01 13:49:43;;;;;;;0.00;0.00;;;21.90;99.90;;;;;;5028955;28;20446;-78
2022/08/01 13:52:13;;;;;;;0.00;0.00;;;21.90;99.90;;;;;;5025061;28;20544;-78
2022/08/01 13:54:40;;;;;;;0.00;0.00;;;22.00;99.90;;;;;;5011013;28;21153;-77
2022/08/01 13:57:09;;;;;;;0.00;0.00;;;22.10;99.90;;;;;;5013562;28;20499;-80
2022/08/01 13:59:37;;;;;;;0.00;0.00;;;22.00;99.90;;;;;;5009244;28;21124;-77
2022/08/01 14:02:05;;;;;;;0.00;0.00;;;22.00;99.90;;;;;;5015294;28;20872;-77
2022/08/01 14:04:33;;;;;;;0.00;0.00;;;22.00;99.90;;;;;;5004398;28;20569;-76